Time;durP1;ratioP1;P1;durP2;ratioP2;P2;SDS_P1;SDS_P2;PMS_P1;PMS_P2;Temp;Humidity;BMP_temperature;BMP_pressure;BME280_temperature;BME280_humidity;BME280_pressure;Samples;Min_cycle;Max_cycle;Signal;HPM_P1;HPM_P2
2021/04/16 00:01:42;;;;;;;7.33;6.62;;;;;;;12.62;53.55;101550.08;1805444;79;21147;-45
2021/04/16 00:04:11;;;;;;;8.13;7.42;;;;;;;12.59;53.57;101558.42;1798282;79;21290;-49
2021/04/16 00:06:41;;;;;;;8.45;6.55;;;;;;;12.56;53.68;101557.16;1802163;79;21156;-48
2021/04/16 00:09:09;;;;;;;7.25;6.55;;;;;;;12.54;53.81;101538.91;1801677;79;21164;-46
2021/04/16 00:11:38;;;;;;;7.30;6.60;;;;;;;12.55;53.72;101543.23;1802384;79;21533;-46
2021/04/16 00:14:06;;;;;;;7.10;6.50;;;;;;;12.58;53.70;101542.32;1792359;79;21164;-49
2021/04/16 00:16:34;;;;;;;6.97;6.33;;;;;;;12.53;53.73;101534.56;1805423;79;21172;-49
2021/04/16 00:19:04;;;;;;;6.95;6.35;;;;;;;12.50;53.75;101538.55;1804909;79;21620;-47
2021/04/16 00:21:33;;;;;;;7.55;6.83;;;;;;;12.47;53.80;101541.20;1809251;79;21564;-48
2021/04/16 00:24:02;;;;;;;7.78;6.92;;;;;;;12.44;54.06;101537.78;1749015;82;21184;-46
2021/04/16 00:26:30;;;;;;;7.40;6.70;;;;;;;12.43;54.12;101533.00;1803427;79;21148;-48
2021/04/16 00:28:58;;;;;;;7.53;6.83;;;;;;;12.43;54.10;101536.91;1799659;79;21166;-50
2021/04/16 00:31:29;;;;;;;8.10;7.30;;;;;;;12.43;54.08;101533.00;1748761;82;21172;-49
2021/04/16 00:33:57;;;;;;;7.15;6.45;;;;;;;12.42;54.01;101543.48;1807049;78;21100;-48
2021/04/16 00:36:26;;;;;;;7.33;6.62;;;;;;;12.39;54.10;101536.55;1805265;79;21348;-49
2021/04/16 00:38:54;;;;;;;7.80;7.00;;;;;;;12.36;54.06;101534.45;1797907;79;21164;-47
2021/04/16 00:41:28;;;;;;;6.95;6.35;;;;;;;12.33;54.24;101538.39;1803293;79;21125;-46
2021/04/16 00:43:56;;;;;;;8.55;7.75;;;;;;;12.32;54.33;101531.03;1718980;83;21160;-49
2021/04/16 00:46:46;;;;;;;7.40;6.70;;;;;;;12.32;54.25;101526.25;1717430;83;21156;-48
2021/04/16 00:49:24;;;;;;;7.53;6.67;;;;;;;12.35;54.22;101525.75;1766347;79;23141;-50
2021/04/16 00:51:54;;;;;;;7.67;6.97;;;;;;;12.28;54.17;101527.59;1719426;82;21168;-50
2021/04/16 00:54:26;;;;;;;7.42;6.72;;;;;;;12.26;54.13;101523.31;1741452;82;21204;-47
2021/04/16 00:56:54;;;;;;;7.90;7.10;;;;;;;12.24;54.22;101526.39;1636168;86;21637;-50
2021/04/16 00:59:27;;;;;;;7.55;6.83;;;;;;;12.23;54.27;101527.26;1629509;87;21185;-53
2021/04/16 01:01:57;;;;;;;7.80;6.92;;;;;;;12.22;54.27;101529.00;1629827;87;21157;-51
2021/04/16 01:04:26;;;;;;;8.13;7.03;;;;;;;12.22;54.28;101523.78;1629992;87;21179;-50
2021/04/16 01:06:54;;;;;;;8.08;7.28;;;;;;;12.23;54.15;101527.26;1629975;87;21672;-51
2021/04/16 01:09:22;;;;;;;8.05;7.25;;;;;;;12.25;54.04;101528.09;1630927;87;21182;-47
2021/04/16 01:11:50;;;;;;;8.40;6.87;;;;;;;12.21;54.08;101526.42;1632545;87;21157;-49
2021/04/16 01:14:19;;;;;;;7.35;6.65;;;;;;;12.17;54.11;101529.97;1632531;87;21652;-48
2021/04/16 01:16:50;;;;;;;7.97;6.47;;;;;;;12.15;54.25;101523.91;1631442;87;21215;-49
2021/04/16 01:19:40;;;;;;;7.12;6.50;;;;;;;12.15;54.24;101526.52;1609011;87;21621;-49
2021/04/16 01:22:19;;;;;;;7.10;6.50;;;;;;;12.21;54.10;101531.64;1810162;79;23035;-47
2021/04/16 01:24:47;;;;;;;7.08;6.45;;;;;;;12.12;54.10;101522.20;1778615;80;21586;-49
2021/04/16 01:27:15;;;;;;;8.13;7.33;;;;;;;12.11;54.15;101519.63;1777456;80;21156;-51
2021/04/16 01:29:46;;;;;;;7.17;6.47;;;;;;;12.08;54.16;101524.87;1776049;80;21572;-47
2021/04/16 01:32:28;;;;;;;7.35;6.65;;;;;;;12.04;54.27;101524.52;1775551;80;21160;-50
2021/04/16 01:34:57;;;;;;;6.77;6.17;;;;;;;12.03;54.48;101521.50;1781374;80;21140;-49
2021/04/16 01:37:27;;;;;;;7.20;6.55;;;;;;;12.03;54.45;101526.72;1780078;80;21141;-50
2021/04/16 01:39:54;;;;;;;8.03;7.22;;;;;;;12.00;54.46;101534.58;1778562;80;21159;-48
2021/04/16 01:42:23;;;;;;;7.78;7.05;;;;;;;12.00;54.40;101533.27;1763256;80;21188;-47
2021/04/16 01:44:52;;;;;;;6.78;6.12;;;;;;;12.00;54.48;101525.45;1780083;80;21568;-47
2021/04/16 01:47:20;;;;;;;7.05;6.40;;;;;;;12.01;54.51;101533.70;1766261;80;21163;-49
2021/04/16 01:49:51;;;;;;;7.00;6.33;;;;;;;12.01;54.54;101527.19;1780065;80;21136;-51
2021/04/16 01:52:31;;;;;;;6.75;5.40;;;;;;;12.02;54.35;101527.59;1778665;80;21600;-52
2021/04/16 01:54:59;;;;;;;6.30;5.70;;;;;;;12.00;54.21;101524.14;1784347;80;21180;-49
2021/04/16 01:57:32;;;;;;;7.03;6.33;;;;;;;12.01;54.22;101529.80;1776997;80;21576;-51
2021/04/16 02:00:00;;;;;;;7.07;6.37;;;;;;;11.99;54.31;101531.56;1783368;80;21604;-52
2021/04/16 02:02:34;;;;;;;6.28;5.67;;;;;;;11.99;54.31;101530.26;1779247;80;21196;-49
2021/04/16 02:05:04;;;;;;;6.50;5.90;;;;;;;12.01;54.31;101531.94;1780141;80;21219;-50
2021/04/16 02:07:32;;;;;;;6.42;5.83;;;;;;;12.01;54.37;101533.70;1770567;80;21159;-50
2021/04/16 02:10:01;;;;;;;6.53;5.92;;;;;;;12.02;54.40;101540.62;1777142;80;21589;-50
2021/04/16 02:12:29;;;;;;;7.15;6.00;;;;;;;12.05;54.54;101541.47;1776258;80;21166;-47
2021/04/16 02:14:56;;;;;;;6.10;5.47;;;;;;;12.10;54.44;101546.59;1776726;80;21548;-50
2021/04/16 02:17:27;;;;;;;6.53;5.92;;;;;;;12.14;54.28;101549.56;1774895;80;21148;-52
2021/04/16 02:19:58;;;;;;;6.50;5.90;;;;;;;12.16;54.22;101542.58;1774090;80;21283;-49
2021/04/16 02:22:27;;;;;;;6.50;5.90;;;;;;;12.14;54.17;101546.95;1772995;80;21136;-50
2021/04/16 02:24:56;;;;;;;5.95;5.35;;;;;;;12.13;54.11;101547.86;1771783;80;21168;-50
2021/04/16 02:27:25;;;;;;;5.78;5.28;;;;;;;12.14;54.05;101556.09;1772683;80;21188;-52
2021/04/16 02:29:55;;;;;;;6.53;5.92;;;;;;;12.14;54.02;101556.96;1770456;80;21133;-50
2021/04/16 02:32:23;;;;;;;6.08;5.53;;;;;;;12.17;53.92;101559.97;1755048;80;21585;-47
2021/04/16 02:34:53;;;;;;;5.70;5.20;;;;;;;12.15;53.88;101556.52;1767257;80;21156;-47
2021/04/16 02:37:22;;;;;;;6.92;5.50;;;;;;;12.13;53.77;101554.38;1778316;80;21605;-50
2021/04/16 02:39:51;;;;;;;5.33;4.85;;;;;;;12.10;53.82;101552.67;1765098;80;21160;-50
2021/04/16 02:42:19;;;;;;;5.97;5.47;;;;;;;12.10;53.93;101553.11;1776241;80;21184;-50
2021/04/16 02:44:48;;;;;;;5.45;4.95;;;;;;;12.09;53.96;101556.19;1769103;80;21168;-49
2021/04/16 02:47:16;;;;;;;6.10;5.50;;;;;;;12.11;54.02;101553.55;1776399;80;21164;-49
2021/04/16 02:49:45;;;;;;;6.05;5.55;;;;;;;12.13;53.99;101551.77;1771872;80;21310;-52
2021/04/16 02:52:12;;;;;;;5.83;5.30;;;;;;;12.14;53.88;101552.18;1772049;80;21620;-47
2021/04/16 02:54:40;;;;;;;5.25;4.75;;;;;;;12.13;53.71;101553.95;1770798;80;21117;-50
2021/04/16 02:57:10;;;;;;;5.10;4.70;;;;;;;12.13;53.66;101549.17;1773544;80;21168;-50
2021/04/16 02:59:39;;;;;;;5.30;4.83;;;;;;;12.11;53.59;101545.72;1774820;80;21290;-48
2021/04/16 03:02:07;;;;;;;5.22;4.83;;;;;;;12.09;53.62;101552.70;1765884;80;21314;-49
2021/04/16 03:04:36;;;;;;;4.97;4.58;;;;;;;12.05;53.56;101538.86;1778229;80;21144;-51
2021/04/16 03:07:04;;;;;;;5.25;4.75;;;;;;;12.03;53.51;101547.16;1766147;80;21160;-48
2021/04/16 03:09:32;;;;;;;5.00;4.58;;;;;;;11.98;53.64;101544.17;1774894;80;21164;-47
2021/04/16 03:12:00;;;;;;;5.28;4.83;;;;;;;11.96;53.66;101540.72;1771167;80;21148;-49
2021/04/16 03:14:27;;;;;;;6.40;5.80;;;;;;;11.91;53.67;101543.39;1769530;80;21162;-49
2021/04/16 03:16:55;;;;;;;5.30;4.80;;;;;;;11.89;53.76;101544.33;1775628;80;21160;-50
2021/04/16 03:19:24;;;;;;;4.62;4.25;;;;;;;11.87;53.88;101543.02;1767316;80;21589;-51
2021/04/16 03:21:52;;;;;;;5.53;4.70;;;;;;;11.87;53.90;101541.72;1769186;80;22155;-47
2021/04/16 03:24:20;;;;;;;5.87;5.10;;;;;;;11.89;53.88;101552.15;1763484;81;21125;-52
2021/04/16 03:26:49;;;;;;;5.65;5.15;;;;;;;11.90;53.75;101555.16;1762295;81;21169;-47
2021/04/16 03:29:17;;;;;;;5.33;4.83;;;;;;;11.89;53.63;101568.63;1768673;81;21184;-50
2021/04/16 03:31:46;;;;;;;4.90;4.50;;;;;;;11.88;53.65;101573.88;1761385;81;21121;-50
2021/04/16 03:34:14;;;;;;;5.30;4.80;;;;;;;11.85;53.75;101576.08;1770065;81;21149;-47
2021/04/16 03:36:42;;;;;;;5.03;4.53;;;;;;;11.85;53.82;101580.45;1762759;81;21176;-47
2021/04/16 03:39:12;;;;;;;4.92;4.53;;;;;;;11.86;53.88;101592.16;1764720;81;21121;-49
2021/04/16 03:41:40;;;;;;;4.97;4.47;;;;;;;11.87;53.88;101590.43;1759507;81;21208;-50
2021/04/16 03:44:09;;;;;;;5.40;4.90;;;;;;;11.87;53.86;101591.27;1765646;81;21750;-47
2021/04/16 03:46:37;;;;;;;5.00;4.60;;;;;;;11.87;53.79;101593.03;1761887;81;21125;-49
2021/04/16 03:49:04;;;;;;;5.15;4.62;;;;;;;11.87;53.71;101595.64;1767005;81;21184;-46
2021/04/16 03:51:55;;;;;;;4.33;3.92;;;;;;;11.85;53.79;101602.63;1766055;81;21330;-47
2021/04/16 03:54:24;;;;;;;4.37;3.98;;;;;;;11.85;53.82;101600.86;1761354;81;21192;-49
2021/04/16 03:56:53;;;;;;;4.53;4.12;;;;;;;11.86;53.83;101601.30;1760270;81;21537;-51
2021/04/16 03:59:22;;;;;;;4.83;4.42;;;;;;;11.87;53.86;101601.70;1769765;80;21597;-50
2021/04/16 04:01:52;;;;;;;7.25;4.72;;;;;;;11.89;53.68;101599.09;1756623;81;21129;-50
2021/04/16 04:04:21;;;;;;;5.42;4.92;;;;;;;11.90;53.63;101598.19;1768224;81;21164;-49
2021/04/16 04:06:50;;;;;;;5.20;4.70;;;;;;;11.90;53.60;101607.31;1760791;81;21168;-47
2021/04/16 04:09:18;;;;;;;5.00;4.50;;;;;;;11.90;53.63;101605.58;1763192;81;21188;-45
2021/04/16 04:11:49;;;;;;;4.62;4.22;;;;;;;11.90;53.72;101603.41;1760444;81;21101;-53
2021/04/16 04:14:18;;;;;;;4.92;4.53;;;;;;;11.94;53.82;101607.70;1763283;81;21164;-51
2021/04/16 04:17:00;;;;;;;4.28;3.98;;;;;;;11.95;53.94;101606.83;1759252;81;21176;-50
2021/04/16 04:19:30;;;;;;;4.90;4.42;;;;;;;12.00;53.88;101607.61;1689939;84;21276;-46
2021/04/16 04:22:00;;;;;;;4.73;4.33;;;;;;;12.04;53.70;101605.38;1696591;84;21641;-50
2021/04/16 04:24:28;;;;;;;4.72;3.98;;;;;;;12.09;53.50;101604.88;1684716;84;21654;-50
2021/04/16 04:26:56;;;;;;;3.77;3.47;;;;;;;12.10;53.42;101609.20;1682614;84;21261;-49
2021/04/16 04:29:25;;;;;;;3.55;3.25;;;;;;;12.13;53.28;101607.86;1659266;84;21182;-49
2021/04/16 04:31:53;;;;;;;3.60;3.30;;;;;;;12.11;53.35;101605.72;1683542;84;21182;-47
2021/04/16 04:34:26;;;;;;;4.72;3.85;;;;;;;12.13;53.20;101596.13;1680224;84;21324;-50
2021/04/16 04:37:00;;;;;;;5.25;4.25;;;;;;;12.20;53.01;101606.87;1777890;79;23015;-48
2021/04/16 04:39:31;;;;;;;4.00;3.70;;;;;;;12.16;52.90;101611.28;1739181;82;21224;-49
2021/04/16 04:42:01;;;;;;;3.98;3.60;;;;;;;12.17;53.00;101613.45;1738785;81;21597;-46
2021/04/16 04:44:28;;;;;;;4.28;3.87;;;;;;;12.20;53.01;101612.96;1739744;82;21160;-47
2021/04/16 04:46:57;;;;;;;3.55;3.08;;;;;;;12.22;53.12;101612.93;1736901;82;21617;-50
2021/04/16 04:49:25;;;;;;;3.62;3.30;;;;;;;12.24;52.98;101612.50;1742055;82;21589;-50
2021/04/16 04:52:19;;;;;;;3.70;3.30;;;;;;;12.29;52.95;101615.88;1741093;82;21286;-47
2021/04/16 04:54:50;;;;;;;3.60;3.30;;;;;;;12.33;52.81;101614.95;1741098;82;21152;-48
2021/04/16 04:57:20;;;;;;;4.30;3.50;;;;;;;12.33;52.55;101621.47;1727910;82;21113;-46
2021/04/16 04:59:48;;;;;;;3.55;3.25;;;;;;;12.34;52.46;101623.65;1741359;82;21152;-47
2021/04/16 05:02:17;;;;;;;3.30;3.02;;;;;;;12.37;52.57;101624.45;1736996;82;21152;-51
2021/04/16 05:04:46;;;;;;;4.03;3.30;;;;;;;12.42;52.54;101624.39;1741325;82;21125;-51
2021/04/16 05:07:14;;;;;;;3.27;2.98;;;;;;;12.47;52.33;101626.03;1739213;82;21164;-47
2021/04/16 05:09:43;;;;;;;3.45;3.15;;;;;;;12.53;52.07;101628.55;1737963;82;21147;-46
2021/04/16 05:12:12;;;;;;;3.67;3.17;;;;;;;12.57;51.89;101623.69;1737970;82;21145;-49
2021/04/16 05:14:39;;;;;;;6.20;3.47;;;;;;;12.62;51.73;101629.72;1737876;82;21152;-47
2021/04/16 05:17:08;;;;;;;5.10;3.30;;;;;;;12.60;51.86;101627.57;1738357;82;21156;-50
2021/04/16 05:19:36;;;;;;;3.05;2.75;;;;;;;12.62;51.83;101627.10;1738467;81;21152;-49
2021/04/16 05:22:05;;;;;;;2.87;2.58;;;;;;;12.66;52.01;101623.99;1741341;82;21139;-47
2021/04/16 05:24:34;;;;;;;3.25;2.50;;;;;;;12.70;52.07;101634.36;1741139;82;21584;-49
2021/04/16 05:27:05;;;;;;;4.15;2.62;;;;;;;12.79;52.25;101637.27;1740133;82;21156;-46
2021/04/16 05:29:33;;;;;;;2.65;2.45;;;;;;;12.92;52.07;101643.55;1747776;82;21569;-47
2021/04/16 05:32:02;;;;;;;3.90;2.35;;;;;;;13.04;51.56;101632.92;1744798;81;21169;-46
2021/04/16 05:34:32;;;;;;;2.55;2.10;;;;;;;13.17;51.10;101632.73;1738015;81;21156;-46
2021/04/16 05:37:00;;;;;;;2.00;1.90;;;;;;;13.30;50.83;101644.66;1738634;82;21187;-49
2021/04/16 05:39:51;;;;;;;6.85;2.17;;;;;;;13.39;50.36;101643.19;1741235;82;21262;-50
2021/04/16 05:42:19;;;;;;;1.70;1.60;;;;;;;13.43;50.05;101633.09;1754742;82;21576;-46
2021/04/16 05:44:47;;;;;;;2.25;2.02;;;;;;;13.43;49.46;101638.31;1743792;82;21144;-46
2021/04/16 05:47:15;;;;;;;2.58;2.10;;;;;;;13.36;49.25;101650.64;1725475;82;21164;-49
2021/04/16 05:49:43;;;;;;;4.10;2.40;;;;;;;13.32;49.42;101642.88;1740646;82;21125;-48
2021/04/16 05:52:12;;;;;;;3.25;2.25;;;;;;;13.29;49.52;101645.09;1741253;82;21295;-47
2021/04/16 05:54:40;;;;;;;3.25;2.00;;;;;;;13.27;49.58;101639.50;1741282;82;21179;-49
2021/04/16 05:57:08;;;;;;;2.90;2.10;;;;;;;13.26;49.75;101636.45;1740098;82;21109;-46
2021/04/16 05:59:36;;;;;;;6.05;2.83;;;;;;;13.25;49.73;101636.06;1738600;82;21156;-48
2021/04/16 06:02:26;;;;;;;3.40;2.30;;;;;;;13.25;49.98;101638.67;1737799;82;21148;-48
2021/04/16 06:04:55;;;;;;;14.93;2.17;;;;;;;13.22;49.86;101637.41;1738248;82;21180;-49
2021/04/16 06:07:23;;;;;;;13.90;2.85;;;;;;;13.23;49.73;101640.45;1738490;82;21581;-50
2021/04/16 06:09:56;;;;;;;1.65;1.55;;;;;;;13.21;49.73;101639.62;1711411;82;21556;-47
2021/04/16 06:12:34;;;;;;;4.50;1.80;;;;;;;13.20;49.24;101641.36;1738164;82;21307;-46
2021/04/16 06:15:07;;;;;;;5.97;2.22;;;;;;;13.13;49.44;101649.35;1738524;82;21172;-48
2021/04/16 06:17:37;;;;;;;1.75;1.60;;;;;;;13.05;49.60;101650.34;1738000;82;21137;-49
2021/04/16 06:20:07;;;;;;;2.55;1.70;;;;;;;13.06;49.94;101654.66;1739068;81;21593;-49
2021/04/16 06:22:36;;;;;;;6.20;1.75;;;;;;;13.12;49.81;101655.45;1734741;82;21145;-50
2021/04/16 06:25:06;;;;;;;1.75;1.65;;;;;;;13.18;49.80;101656.20;1740596;82;21296;-51
2021/04/16 06:27:34;;;;;;;2.08;1.87;;;;;;;13.24;49.30;101651.30;1741107;82;21161;-46
2021/04/16 06:30:06;;;;;;;1.40;1.30;;;;;;;13.28;49.44;101651.23;1738358;82;21205;-52
2021/04/16 06:32:35;;;;;;;2.77;1.50;;;;;;;13.35;49.39;101653.29;1713267;83;21190;-46
2021/04/16 06:35:05;;;;;;;3.90;3.30;;;;;;;13.43;49.33;101651.39;1694874;84;21206;-47
2021/04/16 06:37:33;;;;;;;1.60;1.50;;;;;;;13.54;49.44;101646.82;1681095;84;21209;-49
2021/04/16 06:40:01;;;;;;;1.60;1.50;;;;;;;13.69;48.80;101646.49;1682790;84;21186;-50
2021/04/16 06:42:31;;;;;;;7.67;1.52;;;;;;;13.81;48.42;101646.23;1685201;84;21214;-46
2021/04/16 06:45:01;;;;;;;2.02;1.30;;;;;;;13.82;47.71;101645.36;1685216;84;21637;-46
2021/04/16 06:47:46;;;;;;;2.58;1.40;;;;;;;13.80;48.20;101652.38;1692698;84;21147;-46
2021/04/16 06:50:14;;;;;;;3.22;1.50;;;;;;;13.85;48.36;101646.15;1685304;83;21233;-46
2021/04/16 06:53:05;;;;;;;3.17;1.98;;;;;;;14.02;48.37;101655.39;1679357;84;21202;-51
2021/04/16 06:55:53;;;;;;;2.20;1.52;;;;;;;14.17;48.21;101650.70;1675240;84;21702;-48
2021/04/16 06:58:29;;;;;;;1.30;1.20;;;;;;;14.36;47.20;101646.78;1684696;84;21161;-50
2021/04/16 07:01:24;;;;;;;1.27;1.17;;;;;;;14.45;47.22;101654.44;1682550;84;21134;-50
2021/04/16 07:04:19;;;;;;;1.95;1.32;;;;;;;14.49;46.54;101666.55;1682198;84;21182;-47
2021/04/16 07:06:54;;;;;;;0.90;0.90;;;;;;;14.48;46.80;101667.47;1771552;79;22483;-47
2021/04/16 07:09:32;;;;;;;4.90;1.80;;;;;;;14.44;46.90;101673.67;1742548;82;21243;-47
2021/04/16 07:12:19;;;;;;;1.70;1.60;;;;;;;14.45;47.21;101677.13;1737420;82;21550;-48
2021/04/16 07:15:00;;;;;;;1.82;1.17;;;;;;;14.46;47.32;101674.50;1738054;82;21181;-49
2021/04/16 07:17:37;;;;;;;1.30;1.20;;;;;;;14.48;47.08;101680.56;1738518;82;21703;-49
2021/04/16 07:20:08;;;;;;;1.32;0.90;;;;;;;14.45;46.80;101680.62;1734469;82;21160;-49
2021/04/16 07:22:48;;;;;;;1.25;1.02;;;;;;;14.45;46.90;101681.06;1736347;82;21136;-48
2021/04/16 07:25:27;;;;;;;5.58;2.00;;;;;;;14.45;46.78;101683.23;1735984;82;21160;-48
2021/04/16 07:28:51;;;;;;;2.70;1.92;;;;;;;14.45;46.85;101690.22;1730890;82;21180;-50
2021/04/16 07:31:29;;;;;;;4.85;2.60;;;;;;;14.45;47.21;101688.48;1738328;80;21161;-50
2021/04/16 07:34:00;;;;;;;3.05;1.60;;;;;;;14.49;46.98;101687.51;1740778;82;21128;-46
2021/04/16 07:36:40;;;;;;;1.40;1.30;;;;;;;14.54;47.13;101688.28;1740532;82;21152;-45
2021/04/16 07:39:18;;;;;;;3.72;1.60;;;;;;;14.59;46.95;101690.77;1687176;84;21195;-47
2021/04/16 07:41:50;;;;;;;1.50;1.40;;;;;;;14.66;46.85;101694.53;1685298;84;21235;-49
2021/04/16 07:44:34;;;;;;;2.45;1.77;;;;;;;14.76;46.81;101695.61;1771631;79;23031;-52
2021/04/16 07:47:17;;;;;;;2.52;1.00;;;;;;;14.76;46.77;101696.92;1733536;82;21196;-47
2021/04/16 07:50:09;;;;;;;3.52;1.02;;;;;;;14.79;45.64;101695.55;1733981;82;21116;-51
2021/04/16 07:52:44;;;;;;;2.50;1.07;;;;;;;14.81;45.67;101693.75;1654010;85;21216;-47
2021/04/16 07:55:28;;;;;;;3.33;1.17;;;;;;;14.98;45.86;101688.97;1812589;79;23560;-48
2021/04/16 07:58:08;;;;;;;1.92;1.12;;;;;;;15.07;45.65;101699.20;1786052;80;21160;-47
2021/04/16 08:00:42;;;;;;;2.00;1.10;;;;;;;15.23;45.44;101687.41;1690399;84;21346;-50
2021/04/16 08:03:22;;;;;;;1.37;1.27;;;;;;;15.45;44.74;101692.56;1811146;79;23076;-50
2021/04/16 08:05:57;;;;;;;5.85;1.17;;;;;;;15.52;44.10;101695.41;1776743;80;21172;-49
2021/04/16 08:08:31;;;;;;;2.62;1.30;;;;;;;15.61;44.18;101686.44;1792797;80;21195;-49
2021/04/16 08:11:08;;;;;;;1.47;1.35;;;;;;;15.65;44.22;101690.25;1778182;80;21152;-53
2021/04/16 08:13:47;;;;;;;1.50;1.40;;;;;;;15.70;43.87;101687.50;1753669;81;21117;-48
2021/04/16 08:16:31;;;;;;;1.50;1.40;;;;;;;15.71;43.90;101688.77;1728888;82;21205;-47
2021/04/16 08:19:13;;;;;;;1.17;1.07;;;;;;;15.71;43.56;101687.45;1666236;86;21227;-49
2021/04/16 08:21:49;;;;;;;3.20;1.20;;;;;;;15.73;43.55;101683.47;1668636;86;21207;-47
2021/04/16 08:24:30;;;;;;;1.40;1.30;;;;;;;15.70;43.85;101694.94;1668212;86;21205;-50
2021/04/16 08:27:07;;;;;;;1.42;1.17;;;;;;;15.72;43.36;101685.70;1709768;83;21168;-46
2021/04/16 08:29:56;;;;;;;1.70;1.40;;;;;;;15.72;43.50;101687.01;1695380;83;21234;-49
2021/04/16 08:32:47;;;;;;;1.20;1.10;;;;;;;15.76;43.42;101681.64;1780950;79;23531;-49
2021/04/16 08:35:34;;;;;;;1.30;1.20;;;;;;;15.75;43.60;101686.91;1734262;82;21140;-50
2021/04/16 08:38:06;;;;;;;3.00;1.22;;;;;;;15.79;43.24;101686.78;1735090;82;21157;-48
2021/04/16 08:40:43;;;;;;;1.30;1.20;;;;;;;15.85;43.11;101683.98;1740853;81;21168;-48
2021/04/16 08:43:31;;;;;;;1.37;1.27;;;;;;;15.90;42.72;101684.72;1740217;82;21177;-48
2021/04/16 08:46:04;;;;;;;2.25;1.35;;;;;;;15.97;42.41;101681.00;1692994;84;21216;-48
2021/04/16 08:48:37;;;;;;;1.15;1.05;;;;;;;16.05;42.38;101686.88;1697069;84;21215;-46
2021/04/16 08:51:12;;;;;;;1.72;1.50;;;;;;;16.12;42.43;101688.43;1690955;84;21632;-49
2021/04/16 08:53:40;;;;;;;4.20;1.57;;;;;;;16.16;41.97;101683.50;1690233;84;21215;-50
2021/04/16 08:56:28;;;;;;;1.55;1.45;;;;;;;16.19;41.82;101680.79;1690711;84;21167;-46
2021/04/16 08:58:56;;;;;;;3.10;1.60;;;;;;;16.22;41.92;101684.63;1688678;84;21184;-49
2021/04/16 09:01:32;;;;;;;1.30;1.20;;;;;;;16.27;41.88;101682.73;1687652;84;21273;-48
2021/04/16 09:04:34;;;;;;;1.98;1.57;;;;;;;16.34;41.83;101675.97;1687509;84;21175;-48
2021/04/16 09:07:20;;;;;;;1.62;1.52;;;;;;;16.51;40.87;101672.38;1810215;79;22835;-45
2021/04/16 09:09:55;;;;;;;3.95;1.67;;;;;;;16.53;41.32;101676.69;1775341;80;21167;-49
2021/04/16 09:12:44;;;;;;;4.30;2.25;;;;;;;16.62;41.07;101678.17;1777294;80;21179;-48
2021/04/16 09:15:34;;;;;;;1.42;1.22;;;;;;;16.68;40.68;101680.59;1776790;80;21156;-51
2021/04/16 09:18:09;;;;;;;1.90;1.80;;;;;;;16.72;40.52;101683.53;1777009;80;21140;-47
2021/04/16 09:20:46;;;;;;;2.50;2.02;;;;;;;16.71;40.25;101685.77;1746102;81;21251;-46
2021/04/16 09:23:29;;;;;;;5.35;1.98;;;;;;;16.67;40.65;101683.67;1748083;82;21142;-48
2021/04/16 09:25:58;;;;;;;3.08;1.72;;;;;;;16.60;40.26;101687.87;1744327;82;21177;-47
2021/04/16 09:28:31;;;;;;;4.45;2.30;;;;;;;16.51;40.29;101688.14;1747543;82;21655;-49
2021/04/16 09:31:03;;;;;;;4.75;2.58;;;;;;;16.42;40.89;101691.91;1747242;82;21139;-46
2021/04/16 09:33:45;;;;;;;3.45;2.40;;;;;;;16.35;42.41;101700.00;1747865;82;21262;-49
2021/04/16 09:36:33;;;;;;;3.00;2.77;;;;;;;16.24;43.29;101701.19;1731868;82;21091;-51
2021/04/16 09:39:15;;;;;;;2.87;2.62;;;;;;;16.09;44.05;101693.76;1746401;82;21639;-51
2021/04/16 09:41:45;;;;;;;4.50;2.85;;;;;;;15.91;44.66;101698.23;1747402;82;21153;-45
2021/04/16 09:44:32;;;;;;;4.92;2.90;;;;;;;15.74;45.20;101699.19;1745220;82;21139;-46
2021/04/16 09:47:03;;;;;;;2.95;2.75;;;;;;;15.61;45.52;101695.17;1739389;82;21141;-49
2021/04/16 09:49:40;;;;;;;3.62;3.33;;;;;;;15.49;45.91;101698.13;1744941;82;21216;-46
2021/04/16 09:52:34;;;;;;;5.55;3.58;;;;;;;15.40;46.44;101701.83;1745586;82;21172;-51
2021/04/16 09:55:58;;;;;;;3.52;3.20;;;;;;;15.39;47.33;101693.53;1802086;79;23064;-48
2021/04/16 09:58:44;;;;;;;6.28;3.98;;;;;;;15.34;47.55;101701.13;1792043;80;21151;-50
2021/04/16 10:01:17;;;;;;;6.22;3.83;;;;;;;15.31;47.98;101695.97;1791234;80;21159;-48
2021/04/16 10:03:51;;;;;;;5.22;4.50;;;;;;;15.37;47.95;101690.56;1790100;80;21569;-51
2021/04/16 10:06:42;;;;;;;4.15;3.52;;;;;;;15.46;48.03;101687.27;1786188;80;21605;-50
2021/04/16 10:09:20;;;;;;;3.65;3.33;;;;;;;15.56;48.28;101686.55;1709829;83;21207;-46
2021/04/16 10:11:53;;;;;;;4.28;3.83;;;;;;;15.66;48.17;101682.77;1709911;83;21196;-47
2021/04/16 10:14:31;;;;;;;5.30;3.70;;;;;;;15.75;48.46;101674.66;1709870;83;21168;-47
2021/04/16 10:17:21;;;;;;;3.65;3.12;;;;;;;15.84;48.00;101680.97;1708959;83;21239;-50
2021/04/16 10:20:12;;;;;;;3.85;3.00;;;;;;;15.91;47.85;101677.72;1710688;83;21215;-49
2021/04/16 10:22:40;;;;;;;3.20;2.90;;;;;;;15.98;47.76;101673.98;1709932;83;21172;-50
2021/04/16 12:41:21;;;;;;;40.08;5.87;;;;;;;14.68;52.09;101669.60;1677712;85;21204;-50
2021/04/16 12:43:49;;;;;;;52.30;8.55;;;;;;;14.69;51.94;101674.80;1676650;85;21184;-49
2021/04/16 12:46:27;;;;;;;11.15;4.15;;;;;;;14.68;52.04;101665.23;1649085;86;21188;-47
2021/04/16 12:49:01;;;;;;;18.42;4.20;;;;;;;14.73;52.26;101664.26;1771556;79;23141;-48
2021/04/16 12:51:29;;;;;;;9.45;3.15;;;;;;;14.71;52.37;101669.98;1735251;82;21148;-51
2021/04/16 12:53:57;;;;;;;9.28;3.58;;;;;;;14.74;52.22;101664.66;1739007;82;21140;-46
2021/04/16 12:56:36;;;;;;;9.45;3.30;;;;;;;14.77;52.17;101667.22;1740124;82;21136;-50
2021/04/16 12:59:13;;;;;;;4.50;3.20;;;;;;;14.79;51.80;101665.42;1734783;82;21144;-49
2021/04/16 13:01:46;;;;;;;29.12;5.70;;;;;;;14.81;52.07;101667.55;1738019;82;21145;-49
2021/04/16 13:04:14;;;;;;;3.55;2.70;;;;;;;14.84;52.04;101660.47;1734544;80;21164;-46
2021/04/16 13:06:45;;;;;;;3.72;3.35;;;;;;;14.88;52.24;101657.34;1734584;82;21314;-47
2021/04/16 13:09:15;;;;;;;4.05;3.47;;;;;;;14.92;52.10;101657.67;1685239;84;21190;-46
2021/04/16 13:11:42;;;;;;;4.92;4.42;;;;;;;14.99;52.11;101663.16;1675325;85;21716;-48
2021/04/16 13:14:11;;;;;;;4.67;3.80;;;;;;;15.04;52.22;101659.98;1687501;84;21143;-50
2021/04/16 13:16:39;;;;;;;4.35;3.58;;;;;;;15.06;52.21;101662.98;1688920;84;21214;-50
2021/04/16 13:19:16;;;;;;;5.30;3.40;;;;;;;15.10;52.00;101665.06;1684955;84;21206;-47
2021/04/16 13:21:50;;;;;;;3.42;3.12;;;;;;;15.19;52.08;101664.80;1804531;78;23075;-51
2021/04/16 13:24:18;;;;;;;4.12;3.22;;;;;;;15.22;52.09;101673.47;1784478;80;21563;-48
2021/04/16 13:26:46;;;;;;;3.70;3.10;;;;;;;15.30;51.94;101671.51;1784394;80;21152;-51
2021/04/16 13:29:15;;;;;;;3.27;2.98;;;;;;;15.38;51.70;101666.05;1791416;80;21600;-51
2021/04/16 13:31:44;;;;;;;6.25;3.10;;;;;;;15.44;51.41;101665.91;1783932;80;21136;-49
2021/04/16 13:34:12;;;;;;;3.65;3.30;;;;;;;15.48;51.16;101666.70;1746934;81;21302;-47
2021/04/16 13:36:40;;;;;;;3.70;3.05;;;;;;;15.47;50.47;101663.22;1742995;81;21310;-47
2021/04/16 13:39:08;;;;;;;4.15;3.62;;;;;;;15.41;50.61;101660.25;1743884;81;21177;-51
2021/04/16 13:41:36;;;;;;;3.52;3.22;;;;;;;15.36;50.89;101652.11;1742093;81;21168;-53
2021/04/16 13:44:05;;;;;;;5.08;3.62;;;;;;;15.31;51.01;101656.64;1749473;81;21141;-47
2021/04/16 13:46:35;;;;;;;3.75;3.37;;;;;;;15.28;50.99;101667.20;1735797;81;21290;-48
2021/04/16 13:49:06;;;;;;;10.55;3.80;;;;;;;15.23;50.85;101665.13;1720025;83;21151;-50
2021/04/16 13:51:35;;;;;;;3.60;3.25;;;;;;;15.16;51.09;101663.59;1725367;83;21177;-50
2021/04/16 13:54:06;;;;;;;4.95;3.52;;;;;;;15.07;51.27;101649.40;1713645;83;21172;-47
2021/04/16 13:56:34;;;;;;;6.55;3.67;;;;;;;15.02;51.57;101647.36;1745104;81;21192;-47
2021/04/16 13:59:02;;;;;;;4.15;3.33;;;;;;;15.00;51.79;101646.55;1713681;83;21584;-52
2021/04/16 14:01:30;;;;;;;10.63;3.80;;;;;;;14.96;52.16;101646.21;1714633;83;21168;-49
2021/04/16 14:04:04;;;;;;;3.85;3.12;;;;;;;14.96;52.17;101661.47;1723554;83;21163;-47
2021/04/16 14:06:38;;;;;;;7.47;2.98;;;;;;;14.96;52.04;101659.31;1745256;81;21140;-46
2021/04/16 14:09:17;;;;;;;5.45;3.70;;;;;;;14.93;51.76;101657.63;1689235;81;21180;-50